Time;durP1;ratioP1;P1;durP2;ratioP2;P2;SDS_P1;SDS_P2;PMS_P1;PMS_P2;Temp;Humidity;BMP_temperature;BMP_pressure;BME280_temperature;BME280_humidity;BME280_pressure;Samples;Min_cycle;Max_cycle;Signal;HPM_P1;HPM_P2
2022/01/16 07:31:05;;;;;;;29.02;19.23;;;-2.70;99.90;;;;;;6310788;22;20211;-85
2022/01/16 07:33:32;;;;;;;23.85;15.50;;;-2.50;99.90;;;;;;6268964;22;20160;-85
2022/01/16 07:35:59;;;;;;;24.38;14.93;;;-2.60;99.90;;;;;;6284039;22;20162;-85
2022/01/16 07:38:25;;;;;;;24.02;15.93;;;-2.60;99.90;;;;;;6284493;22;20504;-87
2022/01/16 07:40:57;;;;;;;27.17;16.15;;;-2.70;99.90;;;;;;6285878;22;20230;-86
2022/01/16 07:43:24;;;;;;;26.00;15.95;;;-2.70;99.90;;;;;;6314038;22;20801;-85
2022/01/16 07:45:51;;;;;;;23.95;14.88;;;-2.60;99.90;;;;;;6284414;22;20157;-85
2022/01/16 07:48:18;;;;;;;25.38;16.33;;;-2.50;99.90;;;;;;6285708;22;20160;-85
2022/01/16 07:50:44;;;;;;;22.90;16.08;;;-2.30;99.90;;;;;;6231863;22;20161;-83
2022/01/16 07:53:11;;;;;;;23.85;16.30;;;-2.30;99.90;;;;;;6284086;22;20272;-83
2022/01/16 07:55:36;;;;;;;27.15;18.00;;;-2.20;99.90;;;;;;6283107;22;20161;-83
2022/01/16 07:58:04;;;;;;;28.20;17.97;;;-2.10;99.90;;;;;;6284412;22;20160;-84
2022/01/16 08:00:31;;;;;;;25.40;16.90;;;-2.10;99.90;;;;;;6311081;22;20366;-84
2022/01/16 08:02:58;;;;;;;28.15;17.88;;;-2.00;99.90;;;;;;6284255;22;20836;-84
2022/01/16 08:05:29;;;;;;;23.15;16.58;;;-1.90;99.90;;;;;;6311677;22;20614;-85
2022/01/16 08:07:58;;;;;;;24.08;18.00;;;-1.80;99.90;;;;;;6284778;22;20160;-85
2022/01/16 08:10:24;;;;;;;25.40;16.97;;;-1.70;99.90;;;;;;6311959;22;20562;-84
2022/01/16 08:12:51;;;;;;;24.20;16.60;;;-1.60;99.90;;;;;;6284528;22;20379;-84
2022/01/16 08:15:18;;;;;;;23.42;17.15;;;-1.50;99.90;;;;;;6282322;22;20214;-86
2022/01/16 08:17:49;;;;;;;26.27;16.63;;;-1.50;99.90;;;;;;6287351;22;20248;-84
2022/01/16 08:20:16;;;;;;;22.97;16.90;;;-1.40;99.90;;;;;;6294757;22;20445;-85
2022/01/16 08:22:48;;;;;;;25.80;17.63;;;-1.40;99.90;;;;;;6296032;22;20411;-86
2022/01/16 08:25:16;;;;;;;23.80;18.40;;;-1.30;99.90;;;;;;6289730;22;20702;-84
2022/01/16 08:28:06;;;;;;;24.97;15.80;;;-1.30;99.90;;;;;;6281272;22;20768;-84
2022/01/16 08:30:37;;;;;;;24.70;18.10;;;-1.20;99.90;;;;;;6285799;22;20439;-85
2022/01/16 08:33:03;;;;;;;25.03;18.10;;;-1.30;99.90;;;;;;6287296;22;20848;-84
2022/01/16 08:35:29;;;;;;;23.07;16.10;;;-1.30;99.90;;;;;;6285465;22;20392;-85
2022/01/16 08:38:04;;;;;;;23.73;15.90;;;-1.20;99.90;;;;;;6283295;22;20552;-85
2022/01/16 08:40:30;;;;;;;23.40;16.10;;;-1.10;99.90;;;;;;6283409;22;20185;-85
2022/01/16 08:43:13;;;;;;;23.93;16.77;;;-1.00;99.90;;;;;;6284695;22;20865;-85
2022/01/16 08:45:41;;;;;;;25.70;16.67;;;-0.70;99.90;;;;;;6283730;22;20416;-85
2022/01/16 08:48:08;;;;;;;23.73;15.40;;;-0.50;99.90;;;;;;6283886;22;20375;-84
2022/01/16 08:50:40;;;;;;;25.30;16.33;;;0.00;99.90;;;;;;6283128;22;20387;-84
2022/01/16 08:53:09;;;;;;;21.40;15.60;;;0.30;99.90;;;;;;6256088;22;20410;-85
2022/01/16 08:55:45;;;;;;;24.93;15.30;;;0.40;99.90;;;;;;6285125;22;20393;-84
2022/01/16 08:58:11;;;;;;;20.13;14.00;;;0.70;99.90;;;;;;6278266;22;20811;-83
2022/01/16 09:00:37;;;;;;;20.30;13.40;;;0.80;99.90;;;;;;6283891;22;20612;-85
2022/01/16 09:03:04;;;;;;;19.80;13.00;;;1.00;99.90;;;;;;6307691;22;20695;-85
2022/01/16 09:05:30;;;;;;;20.93;14.10;;;1.20;99.90;;;;;;6259062;22;20573;-85
2022/01/16 09:08:22;;;;;;;20.30;14.30;;;1.20;99.90;;;;;;6283762;22;20920;-84
2022/01/16 09:10:49;;;;;;;20.17;13.70;;;1.40;99.90;;;;;;6283690;22;20860;-85
2022/01/16 09:13:17;;;;;;;21.67;14.60;;;1.60;99.90;;;;;;6286334;22;20387;-85
2022/01/16 09:15:52;;;;;;;20.27;13.90;;;1.80;99.90;;;;;;6286360;22;20372;-85
2022/01/16 09:18:22;;;;;;;18.57;14.03;;;1.70;99.90;;;;;;6307601;22;20776;-84
2022/01/16 09:20:49;;;;;;;24.67;15.73;;;1.90;99.90;;;;;;6313193;22;20832;-83
2022/01/16 09:24:15;;;;;;;19.00;13.87;;;2.10;99.90;;;;;;6312316;22;20419;-86
2022/01/16 09:27:18;;;;;;;18.43;13.30;;;2.20;99.90;;;;;;6267761;22;20764;-84
2022/01/16 09:29:45;;;;;;;22.83;17.00;;;2.20;99.90;;;;;;6286001;22;20412;-84
2022/01/16 09:32:17;;;;;;;20.63;14.37;;;2.30;99.90;;;;;;6287201;22;20984;-84
2022/01/16 09:34:57;;;;;;;19.67;14.73;;;2.30;99.90;;;;;;6286640;22;20389;-88
2022/01/16 09:37:25;;;;;;;21.00;15.10;;;2.30;99.90;;;;;;6284405;22;20445;-85
2022/01/16 09:39:54;;;;;;;23.43;16.00;;;2.60;99.90;;;;;;6285963;22;20760;-84
2022/01/16 09:42:25;;;;;;;19.70;15.50;;;2.90;99.90;;;;;;6285543;22;20387;-85
2022/01/16 09:45:11;;;;;;;21.37;15.30;;;3.00;99.90;;;;;;6313837;22;20908;-84
2022/01/16 09:47:40;;;;;;;17.80;13.63;;;2.90;99.90;;;;;;6296209;22;20398;-85
2022/01/16 09:50:08;;;;;;;20.23;14.80;;;3.20;99.90;;;;;;6272303;22;20716;-85
2022/01/16 09:52:43;;;;;;;17.90;13.57;;;3.40;99.90;;;;;;6293221;22;20395;-85
2022/01/16 09:55:09;;;;;;;18.10;14.00;;;3.20;99.90;;;;;;6285926;22;20848;-85
2022/01/16 09:57:37;;;;;;;18.67;14.10;;;2.90;99.90;;;;;;6284826;22;20854;-85
2022/01/16 10:00:16;;;;;;;18.67;15.30;;;3.20;99.90;;;;;;6311410;22;20435;-84
2022/01/16 10:02:44;;;;;;;20.43;15.87;;;3.40;99.90;;;;;;6285270;22;20392;-84
2022/01/16 10:05:38;;;;;;;19.07;15.90;;;3.90;99.90;;;;;;6261306;22;20399;-83
2022/01/16 10:08:14;;;;;;;18.70;15.20;;;4.50;99.90;;;;;;6312790;22;20603;-84
2022/01/16 10:10:59;;;;;;;15.70;13.27;;;4.70;99.90;;;;;;6278152;22;21161;-84
2022/01/16 10:13:36;;;;;;;17.20;14.70;;;4.80;99.90;;;;;;6285498;22;20861;-84
2022/01/16 10:16:04;;;;;;;15.70;14.00;;;4.90;99.90;;;;;;6310946;22;20390;-84
2022/01/16 10:18:41;;;;;;;20.13;15.40;;;4.70;99.90;;;;;;6284617;22;20451;-85
2022/01/16 10:21:08;;;;;;;18.03;14.47;;;4.50;99.90;;;;;;6285641;22;20448;-84
2022/01/16 10:23:43;;;;;;;19.37;15.57;;;4.70;99.90;;;;;;6288176;22;20408;-85
2022/01/16 10:26:26;;;;;;;20.80;16.10;;;5.20;99.90;;;;;;6282315;22;20417;-84
2022/01/16 10:28:52;;;;;;;22.70;16.40;;;5.80;99.90;;;;;;6285097;22;20956;-85
2022/01/16 10:31:27;;;;;;;23.63;17.27;;;6.20;99.90;;;;;;6285067;22;20393;-84
2022/01/16 10:33:55;;;;;;;22.53;16.90;;;5.90;99.90;;;;;;6313102;22;21002;-85
2022/01/16 10:36:36;;;;;;;22.00;16.00;;;5.70;99.90;;;;;;6285320;22;20647;-84
2022/01/16 10:39:14;;;;;;;23.30;16.27;;;5.70;99.90;;;;;;6285769;22;20475;-85
2022/01/16 10:41:42;;;;;;;22.97;17.77;;;6.00;99.90;;;;;;6285566;22;20438;-87
2022/01/16 10:44:29;;;;;;;23.53;17.50;;;6.40;99.90;;;;;;6285769;22;20394;-88
2022/01/16 10:47:26;;;;;;;19.17;15.97;;;6.60;99.90;;;;;;6283550;22;20529;-90
2022/01/16 10:50:19;;;;;;;20.77;16.47;;;6.80;99.90;;;;;;6284622;22;20418;-90
2022/01/16 10:53:13;;;;;;;21.77;17.27;;;6.80;99.90;;;;;;6313233;22;20382;-90
2022/01/16 10:55:44;;;;;;;22.90;17.03;;;6.60;99.90;;;;;;6313740;22;20374;-90
2022/01/16 10:58:30;;;;;;;21.00;17.13;;;6.70;99.90;;;;;;6287778;22;20713;-89
2022/01/16 11:01:08;;;;;;;22.63;17.60;;;6.80;99.90;;;;;;6284837;22;20445;-86
2022/01/16 11:03:45;;;;;;;22.07;17.23;;;7.10;99.90;;;;;;6313033;22;20435;-85
2022/01/16 11:06:14;;;;;;;21.37;17.70;;;7.40;98.10;;;;;;6284386;22;20892;-89
2022/01/16 11:08:48;;;;;;;20.90;16.40;;;7.20;99.90;;;;;;6283954;22;20395;-85
2022/01/16 11:11:14;;;;;;;19.77;15.30;;;7.00;99.90;;;;;;6312763;22;20498;-86
2022/01/16 11:14:25;;;;;;;18.87;16.57;;;6.80;99.90;;;;;;6285015;22;20405;-86
